WIDN/TNJ METAR and TAF weather

Enter ICAO airport designator
Station Type Date Time Source
WIDN METAR 2018/10/22 04:00 UTC NOAA

WIDN 220400Z 05005KT 9999 SCT015 32/23 Q1013 NOSIG


Station Type Date Time Source
WIDN Decoded METAR 2018/10/22 04:00 UTC NOAA

Station name not available
Oct 22, 2018 - 12:00 AM EDT / 2018.10.22 0400 UTC
Wind: from the NE (050 degrees) at 6 MPH (5 KT):0
Visibility: greater than 7 mile(s):0
Sky conditions: partly cloudy
Temperature: 89 F (32 C)
Heat index: 96.8 F (36.0 C):1
Dew Point: 73 F (23 C)
Relative Humidity: 59%
Pressure (altimeter): 29.91 in. Hg (1013 hPa)
ob: WIDN 220400Z 05005KT 9999 SCT015 32/23 Q1013 NOSIG
cycle: 4

Station Type Date Time Source
WIDN TAF 2011/04/08 06:00 UTC NOAA

TAF WIDN 080500Z 0806/0818 04010KT 9000 SCT020
BECMG 35010KT


Example: see airport list